Aérodrome :
LOGIN :

S'inscrire | Disclaimer

   EN    FR    IT 

 










Légende :    VFR   VFR Marginal   IFR   IFR Intensif   IFR Très Intensif
Visi : 
Plafond : 
>= 8 km
>= 3000ft
5 à 8 km
1000 à 3000 ft
1500m à 5 km
500 à 1000 ft
800 à 1500m
200 à 500 ft
< 800m
< 200 ft
Symboles :   Orages  Brouillard  Fortes neiges  Fortes précipitations  Vent > 20 kt
SIGMETs :   Divers  Orages  Givrage  Turbulence  Onde Orograph.  Cendres Volcan.







- Altitude de l'aérodrome : 16 ft
- Code IATA : SDR


LEXJ - Santander Cantabria

DERNIER METAR :
  • 240900Z 30009KT 260V350 9999 FEW016 BKN035 15/12 Q1022

METARs EXPIRÉS :
  • 240830Z 31013KT 280V360 9999 SCT014 BKN030 14/12 Q1022
  • 240800Z 28012KT 9999 SCT014 BKN035 15/13 Q1022
  • 240730Z 28009KT 9999 FEW016 BKN024 15/13 Q1022
  • 240700Z 29011KT 260V320 9999 FEW026 BKN040 15/13 Q1021
  • 240630Z 27012KT 9999 -RA SCT022 BKN034 14/13 Q1021

TAF TAF LEXJ
Valide du 24 à 09h jusqu'au 25 à 09h UTC


240800Z 2409/2509 30009KT 9999 BKN030 TX16/2414Z TN13/2506Z
TEMPO 2409/2418 30015G25KT
PROB40
TEMPO 2409/2509 3000 -RADZ BKN010 BKN014
Pas de NOTAMs connus pour ce terrain.
1 SIGMET publié pour la FIR Madrid (LECM) :
 
Turbulence forte
LECM SIGMET 4 VALID 240800/241200 LEVA
LECM MADRID UIR SEV TURB FCST WI N4347 W00234 - N4155 W00334 - N4119 W00148 - N4253 W00047 - N4347 W00234 FL250/340 MOV E WKN=



MET'MAP, la Météo Aéronautique d'un coup d'oeil ! - Copyright ORBIFLY Décembre 2007 - Disclaimer

ORBIFLY MET'MAP TEAM :

Programmation & Développement : Alexandra Zaïnal
Conception & Développement : Baudouin d'Aumeries
Co-Programmation & Développement : Marc-Olivier Méhu
Soutien technique & logistique : Manuel Goepfert

Contact : metmap@orbifly.com




SOURCES & CREDITS :

   NOAA